createdAt,value
2023-03-10T00:03:14.710Z,92.53
2023-03-10T00:07:16.330Z,93.91
2023-03-10T00:11:17.892Z,93.81
2023-03-10T00:15:20.850Z,94.44
2023-03-10T00:19:22.487Z,94.80
2023-03-10T00:23:23.931Z,95.19
2023-03-10T00:27:25.549Z,94.57
2023-03-10T00:31:28.361Z,94.08
2023-03-10T00:35:29.844Z,94.43
2023-03-10T00:39:31.468Z,93.78
2023-03-10T00:43:33.651Z,94.33
2023-03-10T00:47:36.513Z,94.64
2023-03-10T00:51:37.881Z,95.03
2023-03-10T00:55:39.299Z,94.71
2023-03-10T00:59:49.998Z,95.43
2023-03-10T01:03:54.871Z,95.97
2023-03-10T01:07:56.562Z,96.90
2023-03-10T01:11:58.030Z,97.82
2023-03-10T01:16:00.882Z,98.00
2023-03-10T01:20:06.277Z,98.74
2023-03-10T01:24:08.221Z,99.02
2023-03-10T01:28:10.199Z,99.68
2023-03-10T01:32:11.658Z,99.98
2023-03-10T01:36:17.514Z,100.00
2023-03-10T01:40:19.282Z,100.00
2023-03-10T01:44:21.262Z,100.00
2023-03-10T01:48:24.037Z,100.00
2023-03-10T01:52:31.022Z,100.00
2023-03-10T01:56:35.134Z,100.00
2023-03-10T02:00:36.823Z,100.00
2023-03-10T02:04:43.006Z,99.83
2023-03-10T02:08:50.274Z,98.76
2023-03-10T02:12:51.924Z,98.22
2023-03-10T02:16:53.299Z,96.74
2023-03-10T02:21:03.637Z,95.64
2023-03-10T02:25:17.786Z,94.78
2023-03-10T02:29:25.250Z,93.77
2023-03-10T02:33:30.495Z,95.38
2023-03-10T02:37:34.603Z,95.88
2023-03-10T02:41:38.545Z,96.28
2023-03-10T02:45:43.707Z,96.83
2023-03-10T02:49:45.792Z,97.63
2023-03-10T02:53:47.312Z,97.01
2023-03-10T02:57:48.736Z,97.53
2023-03-10T03:01:51.524Z,98.07
2023-03-10T03:05:53.310Z,97.16
2023-03-10T03:09:55.035Z,97.08
2023-03-10T03:13:56.538Z,96.99
2023-03-10T03:17:59.516Z,97.39
2023-03-10T03:22:01.087Z,98.25
2023-03-10T03:26:02.681Z,98.75
2023-03-10T03:30:08.108Z,98.66
2023-03-10T03:34:11.101Z,97.56
2023-03-10T03:38:12.829Z,98.08
2023-03-10T03:42:14.484Z,97.51
2023-03-10T03:46:15.973Z,97.85
2023-03-10T03:50:22.382Z,96.92
2023-03-10T03:54:24.363Z,97.84
2023-03-10T03:58:26.275Z,97.56
2023-03-10T04:02:27.903Z,97.17
2023-03-10T04:06:30.923Z,97.26
2023-03-10T04:10:32.368Z,96.69
2023-03-10T04:14:34.143Z,97.21
2023-03-10T04:18:35.686Z,97.63
2023-03-10T04:22:38.579Z,98.29
2023-03-10T04:26:40.443Z,98.11
2023-03-10T04:30:43.132Z,98.49
2023-03-10T04:34:44.584Z,98.74
2023-03-10T04:38:47.841Z,98.28
2023-03-10T04:42:49.248Z,97.54
2023-03-10T04:46:50.714Z,97.34
2023-03-10T04:50:55.926Z,97.01
2023-03-10T04:54:59.987Z,97.27
2023-03-10T04:59:01.651Z,97.51
2023-03-10T05:03:03.094Z,97.63
2023-03-10T05:07:05.072Z,97.60
2023-03-10T05:11:08.677Z,97.21
2023-03-10T05:15:10.806Z,97.34
2023-03-10T05:19:12.310Z,96.58
2023-03-10T05:23:13.968Z,96.47
2023-03-10T05:27:17.017Z,96.85
2023-03-10T05:31:18.746Z,97.36
2023-03-10T05:35:21.253Z,97.63
2023-03-10T05:39:22.755Z,98.76
2023-03-10T05:43:25.894Z,98.92
2023-03-10T05:47:27.334Z,98.46
2023-03-10T05:51:29.059Z,98.38
2023-03-10T05:55:30.463Z,98.69
2023-03-10T05:59:33.301Z,97.75
2023-03-10T06:03:35.760Z,97.62
2023-03-10T06:07:37.225Z,97.88
2023-03-10T06:11:38.775Z,97.81
2023-03-10T06:15:41.591Z,97.66
2023-03-10T06:19:43.543Z,98.23
2023-03-10T06:23:44.995Z,98.36
2023-03-10T06:27:46.755Z,97.55
2023-03-10T06:31:50.096Z,96.93
2023-03-10T06:35:52.254Z,96.71
2023-03-10T06:39:53.695Z,96.37
2023-03-10T06:43:55.337Z,96.26
2023-03-10T06:47:58.795Z,97.20
2023-03-10T06:52:01.474Z,96.51
2023-03-10T06:56:05.645Z,94.76
2023-03-10T07:00:09.364Z,93.86
2023-03-10T07:04:12.852Z,94.62
2023-03-10T07:08:14.563Z,94.80
2023-03-10T07:12:16.248Z,93.55
2023-03-10T07:16:18.197Z,94.60
2023-03-10T07:20:22.269Z,92.77
2023-03-10T07:24:25.503Z,93.85
2023-03-10T07:28:27.364Z,93.23
2023-03-10T07:32:28.793Z,92.73
2023-03-10T07:36:33.954Z,92.33
2023-03-10T07:40:35.619Z,92.99
2023-03-10T07:44:37.345Z,93.11
2023-03-10T07:48:39.373Z,92.26
2023-03-10T07:52:42.228Z,92.35
2023-03-10T07:56:43.887Z,91.05
2023-03-10T08:00:45.417Z,83.31
2023-03-10T08:04:47.026Z,77.70
2023-03-10T08:08:50.701Z,76.95
2023-03-10T08:12:54.125Z,76.29
2023-03-10T08:16:56.283Z,75.01
2023-03-10T08:20:58.449Z,77.77
2023-03-10T08:25:02.017Z,77.60
2023-03-10T08:29:03.554Z,75.79
2023-03-10T08:33:05.065Z,74.55
2023-03-10T08:37:06.552Z,73.62
2023-03-10T08:41:11.194Z,73.76
2023-03-10T08:45:12.968Z,73.14
2023-03-10T08:49:15.856Z,75.23
2023-03-10T08:53:17.288Z,75.40
2023-03-10T08:57:21.991Z,71.43
2023-03-10T09:01:23.395Z,72.39
2023-03-10T09:05:24.906Z,73.06
2023-03-10T09:09:26.565Z,70.53
2023-03-10T09:13:29.424Z,69.32
2023-03-10T09:17:31.172Z,69.04
2023-03-10T09:21:33.679Z,68.59
2023-03-10T09:25:35.525Z,69.17
2023-03-10T09:29:42.952Z,68.71
2023-03-10T09:33:46.540Z,67.47
2023-03-10T09:37:49.327Z,70.07
2023-03-10T09:42:13.339Z,65.48
2023-03-10T09:46:22.832Z,66.72
2023-03-10T09:50:33.633Z,65.67
2023-03-10T09:54:45.983Z,63.16
2023-03-10T09:58:50.875Z,63.49
2023-03-10T10:03:02.206Z,64.09
2023-03-10T10:07:12.239Z,62.61
2023-03-10T10:11:16.166Z,61.31
2023-03-10T10:15:20.487Z,62.83
2023-03-10T10:19:25.113Z,63.80
2023-03-10T10:23:33.042Z,61.52
2023-03-10T10:27:35.906Z,62.04
2023-03-10T10:31:37.666Z,60.62
2023-03-10T10:35:42.785Z,63.63
2023-03-10T10:39:45.011Z,64.68
2023-03-10T10:43:48.771Z,64.02
2023-03-10T10:47:52.155Z,65.37
2023-03-10T10:52:00.513Z,65.51
2023-03-10T10:56:05.717Z,68.95
2023-03-10T11:00:16.076Z,71.60
2023-03-10T11:04:18.928Z,72.51
2023-03-10T11:08:31.879Z,70.89
2023-03-10T11:12:38.114Z,70.99
2023-03-10T11:16:48.261Z,74.50
2023-03-10T11:20:58.808Z,75.71
2023-03-10T11:25:20.900Z,78.24
2023-03-10T11:29:38.303Z,78.89
2023-03-10T11:33:47.976Z,80.34
2023-03-10T11:37:55.621Z,84.78
2023-03-10T11:42:05.663Z,85.48
2023-03-10T11:46:15.300Z,84.67
2023-03-10T11:50:30.414Z,85.02
2023-03-10T11:54:36.192Z,88.91
2023-03-10T11:58:46.687Z,88.96
2023-03-10T12:03:04.026Z,89.34
2023-03-10T12:07:10.174Z,88.48
2023-03-10T12:11:15.806Z,88.48
2023-03-10T12:15:23.439Z,86.76
2023-03-10T12:19:25.294Z,87.76
2023-03-10T12:23:38.446Z,88.22
2023-03-10T12:28:11.334Z,87.27
2023-03-10T12:32:40.508Z,87.82
2023-03-10T12:36:45.098Z,88.16
2023-03-10T12:40:51.145Z,89.79
2023-03-10T12:45:00.846Z,89.50
2023-03-10T12:49:14.808Z,89.83
2023-03-10T12:53:31.870Z,89.36
2023-03-10T12:57:39.301Z,87.85
2023-03-10T13:01:55.003Z,88.89
2023-03-10T13:06:02.316Z,89.82
2023-03-10T13:10:05.246Z,91.41
2023-03-10T13:14:14.195Z,91.84
2023-03-10T13:18:18.724Z,93.66
2023-03-10T13:22:21.828Z,93.16
2023-03-10T13:26:23.660Z,93.32
2023-03-10T13:30:26.690Z,93.74
2023-03-10T13:34:30.378Z,93.69
2023-03-10T13:38:33.362Z,94.53
2023-03-10T13:42:43.892Z,94.89
2023-03-10T13:46:49.427Z,95.24
2023-03-10T13:51:04.637Z,94.22
2023-03-10T13:55:14.258Z,92.51
2023-03-10T13:59:19.772Z,89.31
2023-03-10T14:03:21.269Z,91.05
2023-03-10T14:07:24.349Z,89.09
2023-03-10T14:11:35.056Z,84.97
2023-03-10T14:15:36.731Z,84.71
2023-03-10T14:19:49.310Z,84.67
2023-03-10T14:23:50.803Z,84.83
2023-03-10T14:27:58.118Z,85.14
2023-03-10T14:31:59.746Z,85.79
2023-03-10T14:36:01.513Z,83.27
2023-03-10T14:40:03.531Z,83.20
2023-03-10T14:44:06.759Z,84.92
2023-03-10T14:48:13.868Z,83.30
2023-03-10T14:52:17.798Z,83.75
2023-03-10T14:56:21.822Z,84.49
2023-03-10T15:00:25.644Z,81.95
2023-03-10T15:04:27.331Z,84.69
2023-03-10T15:08:30.658Z,82.94
2023-03-10T15:12:33.797Z,83.17
2023-03-10T15:16:36.585Z,84.78
2023-03-10T15:20:38.361Z,84.78
2023-03-10T15:24:39.777Z,85.04
2023-03-10T15:28:41.294Z,84.13
2023-03-10T15:32:44.742Z,85.41
2023-03-10T15:36:46.421Z,83.47
2023-03-10T15:40:48.226Z,83.85
2023-03-10T15:44:49.950Z,83.43
2023-03-10T15:48:52.739Z,83.83
2023-03-10T15:52:56.451Z,83.65
2023-03-10T15:56:58.597Z,84.56
2023-03-10T16:01:06.236Z,83.24
2023-03-10T16:05:09.705Z,84.52
2023-03-10T16:09:11.671Z,85.65
2023-03-10T16:13:13.346Z,85.56
2023-03-10T16:17:15.032Z,86.04
2023-03-10T16:21:18.847Z,85.33
2023-03-10T16:25:20.408Z,86.23
2023-03-10T16:29:23.355Z,88.53
2023-03-10T16:33:24.757Z,88.32
2023-03-10T16:37:29.232Z,89.93
2023-03-10T16:41:30.652Z,89.26
2023-03-10T16:45:32.285Z,88.62
2023-03-10T16:49:34.439Z,88.95
2023-03-10T16:53:37.445Z,88.85
2023-03-10T16:57:39.062Z,89.85
2023-03-10T17:01:40.514Z,90.27
2023-03-10T17:05:41.904Z,90.15
2023-03-10T17:09:45.117Z,90.89
2023-03-10T17:13:47.299Z,91.08
2023-03-10T17:17:48.770Z,91.95
2023-03-10T17:21:50.537Z,92.07
2023-03-10T17:25:54.515Z,92.51
2023-03-10T17:29:57.270Z,92.17
2023-03-10T17:34:01.532Z,92.70
2023-03-10T17:38:02.927Z,92.06
2023-03-10T17:42:05.978Z,91.84
2023-03-10T17:46:10.985Z,91.51
2023-03-10T17:50:12.555Z,91.04
2023-03-10T17:54:17.574Z,91.58
2023-03-10T17:58:21.514Z,90.92
2023-03-10T18:02:23.501Z,90.53
2023-03-10T18:06:27.093Z,89.78
2023-03-10T18:10:28.538Z,89.83
2023-03-10T18:14:31.540Z,89.76
2023-03-10T18:18:33.396Z,89.64
2023-03-10T18:22:34.990Z,89.66
2023-03-10T18:26:36.875Z,89.09
2023-03-10T18:30:42.136Z,89.14
2023-03-10T18:34:43.667Z,88.60
2023-03-10T18:38:45.936Z,87.67
2023-03-10T18:42:47.446Z,87.61
2023-03-10T18:46:50.291Z,87.66
2023-03-10T18:50:51.834Z,88.53
2023-03-10T18:54:53.816Z,88.95
2023-03-10T18:58:55.531Z,90.33
2023-03-10T19:02:58.488Z,90.98
2023-03-10T19:06:59.922Z,90.28
2023-03-10T19:11:01.569Z,89.67
2023-03-10T19:15:03.254Z,89.78
2023-03-10T19:19:07.587Z,88.60
2023-03-10T19:23:09.411Z,88.88
2023-03-10T19:27:10.856Z,88.29
2023-03-10T19:31:15.421Z,87.92
2023-03-10T19:35:20.901Z,88.39
2023-03-10T19:39:22.777Z,88.10
2023-03-10T19:43:24.207Z,87.23
2023-03-10T19:47:25.656Z,87.87
2023-03-10T19:51:29.161Z,87.94
2023-03-10T19:55:30.558Z,88.67
2023-03-10T19:59:33.408Z,89.80
2023-03-10T20:03:34.928Z,90.78
2023-03-10T20:07:37.713Z,91.75
2023-03-10T20:11:41.433Z,91.60
2023-03-10T20:15:43.119Z,90.83
2023-03-10T20:19:44.610Z,91.59
2023-03-10T20:23:47.482Z,90.23
2023-03-10T20:27:50.805Z,89.72
2023-03-10T20:31:52.306Z,90.03
2023-03-10T20:35:54.102Z,91.18
2023-03-10T20:39:56.907Z,92.47
2023-03-10T20:43:58.322Z,92.87
2023-03-10T20:48:00.323Z,93.21
2023-03-10T20:52:02.450Z,93.95
2023-03-10T20:56:10.128Z,93.78
2023-03-10T21:00:12.413Z,93.57
2023-03-10T21:04:13.902Z,93.52
2023-03-10T21:08:17.916Z,93.39
2023-03-10T21:12:20.871Z,92.29
2023-03-10T21:16:22.324Z,93.07
2023-03-10T21:20:23.968Z,92.01
2023-03-10T21:24:25.610Z,92.29
2023-03-10T21:28:28.577Z,92.14
2023-03-10T21:32:30.352Z,91.71
2023-03-10T21:36:31.800Z,91.00
2023-03-10T21:40:33.476Z,90.65
2023-03-10T21:44:37.397Z,91.36
2023-03-10T21:48:38.901Z,92.04
2023-03-10T21:52:40.826Z,92.08
2023-03-10T21:56:43.045Z,92.00
2023-03-10T22:00:46.024Z,92.17
2023-03-10T22:04:48.278Z,91.90
2023-03-10T22:08:50.574Z,92.06
2023-03-10T22:12:52.009Z,92.19
2023-03-10T22:16:55.438Z,91.81
2023-03-10T22:20:57.126Z,91.79
2023-03-10T22:24:58.975Z,91.13
2023-03-10T22:29:00.639Z,90.41
2023-03-10T22:33:03.774Z,90.03
2023-03-10T22:37:05.466Z,89.79
2023-03-10T22:41:09.387Z,89.79
2023-03-10T22:45:17.600Z,89.97
2023-03-10T22:49:22.267Z,90.24
2023-03-10T22:53:24.174Z,90.61
2023-03-10T22:57:26.086Z,89.32
2023-03-10T23:01:27.847Z,89.61
2023-03-10T23:05:31.272Z,88.95
2023-03-10T23:09:32.917Z,89.18
2023-03-10T23:13:34.443Z,88.21
2023-03-10T23:17:36.068Z,86.51
2023-03-10T23:21:39.067Z,85.63
2023-03-10T23:25:44.843Z,85.93
2023-03-10T23:29:46.300Z,85.89
2023-03-10T23:33:48.843Z,85.77
2023-03-10T23:37:53.295Z,85.71
2023-03-10T23:41:55.263Z,84.58
2023-03-10T23:45:56.781Z,84.70
2023-03-10T23:49:58.679Z,83.69
2023-03-10T23:54:01.669Z,83.36
2023-03-10T23:58:04.128Z,84.25
